sensor_id;sensor_type;location;lat;lon;timestamp;pressure;altitude;pressure_sealevel;temperature;humidity
74573;BME280;63071;51.526;-0.134;2022-10-31T00:01:55;101298.03;;;25.92;39.65
74573;BME280;63071;51.526;-0.134;2022-10-31T00:04:20;101297.66;;;25.93;39.39
74573;BME280;63071;51.526;-0.134;2022-10-31T00:06:46;101295.00;;;25.93;39.67
74573;BME280;63071;51.526;-0.134;2022-10-31T00:09:11;101300.75;;;25.99;39.78
74573;BME280;63071;51.526;-0.134;2022-10-31T00:11:37;101299.22;;;25.98;39.72
74573;BME280;63071;51.526;-0.134;2022-10-31T00:14:02;101303.41;;;25.95;39.19
74573;BME280;63071;51.526;-0.134;2022-10-31T00:16:29;101309.94;;;25.98;39.83
74573;BME280;63071;51.526;-0.134;2022-10-31T00:19:00;101306.50;;;25.97;39.30
74573;BME280;63071;51.526;-0.134;2022-10-31T00:21:27;101298.44;;;25.94;39.21
74573;BME280;63071;51.526;-0.134;2022-10-31T00:23:53;101310.66;;;25.95;39.43
74573;BME280;63071;51.526;-0.134;2022-10-31T00:26:18;101300.66;;;25.88;39.53
74573;BME280;63071;51.526;-0.134;2022-10-31T00:28:44;101299.91;;;25.88;39.33
74573;BME280;63071;51.526;-0.134;2022-10-31T00:31:11;101306.78;;;25.89;39.32
74573;BME280;63071;51.526;-0.134;2022-10-31T00:33:38;101302.59;;;25.88;39.23
74573;BME280;63071;51.526;-0.134;2022-10-31T00:36:06;101304.53;;;25.91;39.15
74573;BME280;63071;51.526;-0.134;2022-10-31T00:38:32;101295.72;;;25.90;39.44
74573;BME280;63071;51.526;-0.134;2022-10-31T00:40:58;101303.75;;;25.90;39.56
74573;BME280;63071;51.526;-0.134;2022-10-31T00:43:23;101305.31;;;25.95;39.17
74573;BME280;63071;51.526;-0.134;2022-10-31T00:45:49;101301.09;;;25.90;39.34
74573;BME280;63071;51.526;-0.134;2022-10-31T00:48:14;101301.84;;;25.91;39.06
74573;BME280;63071;51.526;-0.134;2022-10-31T00:50:40;101288.47;;;25.91;39.26
74573;BME280;63071;51.526;-0.134;2022-10-31T00:53:05;101301.47;;;25.92;39.01
74573;BME280;63071;51.526;-0.134;2022-10-31T00:55:31;101293.44;;;25.92;39.29
74573;BME280;63071;51.526;-0.134;2022-10-31T00:57:57;101298.81;;;25.92;39.13
74573;BME280;63071;51.526;-0.134;2022-10-31T01:00:22;101298.44;;;25.94;39.18
74573;BME280;63071;51.526;-0.134;2022-10-31T01:02:48;101302.63;;;25.95;39.34
74573;BME280;63071;51.526;-0.134;2022-10-31T01:05:13;101296.88;;;25.93;39.03
74573;BME280;63071;51.526;-0.134;2022-10-31T01:07:40;101302.25;;;25.93;39.86
74573;BME280;63071;51.526;-0.134;2022-10-31T01:10:06;101294.56;;;25.88;39.22
74573;BME280;63071;51.526;-0.134;2022-10-31T01:12:43;101290.38;;;25.90;39.67
74573;BME280;63071;51.526;-0.134;2022-10-31T01:15:12;101283.91;;;25.91;39.17
74573;BME280;63071;51.526;-0.134;2022-10-31T01:17:38;101287.31;;;25.92;39.79
74573;BME280;63071;51.526;-0.134;2022-10-31T01:20:07;101288.47;;;25.91;39.38
74573;BME280;63071;51.526;-0.134;2022-10-31T01:22:33;101286.16;;;25.93;39.43
74573;BME280;63071;51.526;-0.134;2022-10-31T01:24:58;101291.94;;;25.91;39.44
74573;BME280;63071;51.526;-0.134;2022-10-31T01:27:24;101291.94;;;25.91;39.80
74573;BME280;63071;51.526;-0.134;2022-10-31T01:29:50;101284.59;;;25.88;39.63
74573;BME280;63071;51.526;-0.134;2022-10-31T01:32:15;101287.69;;;25.90;40.13
74573;BME280;63071;51.526;-0.134;2022-10-31T01:34:40;101285.75;;;25.87;39.28
74573;BME280;63071;51.526;-0.134;2022-10-31T01:37:06;101285.34;;;25.89;39.73
74573;BME280;63071;51.526;-0.134;2022-10-31T01:39:31;101290.00;;;25.92;39.79
74573;BME280;63071;51.526;-0.134;2022-10-31T01:41:57;101277.34;;;25.85;39.53
74573;BME280;63071;51.526;-0.134;2022-10-31T01:49:54;101292.28;;;25.90;40.04
74573;BME280;63071;51.526;-0.134;2022-10-31T01:52:27;101286.53;;;25.88;40.21
74573;BME280;63071;51.526;-0.134;2022-10-31T01:55:09;101287.66;;;25.87;39.63
74573;BME280;63071;51.526;-0.134;2022-10-31T01:57:39;101278.81;;;25.83;40.24
74573;BME280;63071;51.526;-0.134;2022-10-31T02:00:08;101281.88;;;25.81;39.80
74573;BME280;63071;51.526;-0.134;2022-10-31T02:02:35;101281.50;;;25.83;40.24
74573;BME280;63071;51.526;-0.134;2022-10-31T02:05:07;101292.59;;;25.85;40.24
74573;BME280;63071;51.526;-0.134;2022-10-31T02:10:33;101282.28;;;25.87;40.14
74573;BME280;63071;51.526;-0.134;2022-10-31T02:13:03;101278.47;;;25.84;40.19
74573;BME280;63071;51.526;-0.134;2022-10-31T02:15:30;101267.00;;;25.84;39.78
74573;BME280;63071;51.526;-0.134;2022-10-31T02:17:57;101265.44;;;25.83;39.63
74573;BME280;63071;51.526;-0.134;2022-10-31T02:20:27;101263.16;;;25.85;39.76
74573;BME280;63071;51.526;-0.134;2022-10-31T02:26:28;101273.50;;;25.86;39.73
74573;BME280;63071;51.526;-0.134;2022-10-31T02:29:10;101268.13;;;25.83;39.59
74573;BME280;63071;51.526;-0.134;2022-10-31T02:32:00;101266.59;;;25.82;39.67
74573;BME280;63071;51.526;-0.134;2022-10-31T02:34:39;101264.69;;;25.86;39.48
74573;BME280;63071;51.526;-0.134;2022-10-31T02:37:23;101265.44;;;25.83;40.12
74573;BME280;63071;51.526;-0.134;2022-10-31T02:40:07;101270.03;;;25.82;40.18
74573;BME280;63071;51.526;-0.134;2022-10-31T02:42:53;101270.06;;;25.86;40.28
74573;BME280;63071;51.526;-0.134;2022-10-31T02:45:34;101252.47;;;25.88;39.96
74573;BME280;63071;51.526;-0.134;2022-10-31T02:48:09;101261.66;;;25.87;39.80
74573;BME280;63071;51.526;-0.134;2022-10-31T02:50:41;101251.34;;;25.89;39.97
74573;BME280;63071;51.526;-0.134;2022-10-31T02:53:14;101246.75;;;25.90;39.40
74573;BME280;63071;51.526;-0.134;2022-10-31T02:55:44;101244.09;;;25.90;40.16
74573;BME280;63071;51.526;-0.134;2022-10-31T02:58:15;101239.44;;;25.87;40.27
74573;BME280;63071;51.526;-0.134;2022-10-31T03:07:15;101242.50;;;25.89;39.79
74573;BME280;63071;51.526;-0.134;2022-10-31T03:10:03;101232.97;;;25.88;39.78
74573;BME280;63071;51.526;-0.134;2022-10-31T03:15:31;101237.16;;;25.89;40.25
74573;BME280;63071;51.526;-0.134;2022-10-31T03:18:08;101241.00;;;25.88;39.82
74573;BME280;63071;51.526;-0.134;2022-10-31T03:20:40;101230.25;;;25.84;40.04
74573;BME280;63071;51.526;-0.134;2022-10-31T03:23:14;101235.63;;;25.84;39.99
74573;BME280;63071;51.526;-0.134;2022-10-31T03:25:42;101226.06;;;25.87;40.35
74573;BME280;63071;51.526;-0.134;2022-10-31T03:28:11;101226.06;;;25.87;40.30
74573;BME280;63071;51.526;-0.134;2022-10-31T03:30:42;101229.50;;;25.84;40.40
74573;BME280;63071;51.526;-0.134;2022-10-31T03:33:16;101225.66;;;25.85;40.11
74573;BME280;63071;51.526;-0.134;2022-10-31T03:35:47;101224.13;;;25.80;39.90
74573;BME280;63071;51.526;-0.134;2022-10-31T03:38:15;101228.72;;;25.79;40.19
74573;BME280;63071;51.526;-0.134;2022-10-31T03:40:44;101224.13;;;25.84;40.29
74573;BME280;63071;51.526;-0.134;2022-10-31T03:43:16;101232.56;;;25.86;39.60
74573;BME280;63071;51.526;-0.134;2022-10-31T03:45:46;101225.63;;;25.81;39.88
74573;BME280;63071;51.526;-0.134;2022-10-31T03:48:19;101226.06;;;25.83;40.39
74573;BME280;63071;51.526;-0.134;2022-10-31T03:53:32;101226.06;;;25.87;39.92
74573;BME280;63071;51.526;-0.134;2022-10-31T03:56:05;101229.50;;;25.84;40.08
74573;BME280;63071;51.526;-0.134;2022-10-31T03:58:44;101226.06;;;25.87;40.28
74573;BME280;63071;51.526;-0.134;2022-10-31T04:01:16;101212.25;;;25.77;40.33
74573;BME280;63071;51.526;-0.134;2022-10-31T04:03:45;101224.88;;;25.81;39.95
74573;BME280;63071;51.526;-0.134;2022-10-31T04:06:14;101223.38;;;25.79;40.14
74573;BME280;63071;51.526;-0.134;2022-10-31T04:08:48;101231.00;;;25.77;40.13
74573;BME280;63071;51.526;-0.134;2022-10-31T04:11:18;101234.84;;;25.80;39.93
74573;BME280;63071;51.526;-0.134;2022-10-31T04:13:48;101237.91;;;25.82;40.34
74573;BME280;63071;51.526;-0.134;2022-10-31T04:16:16;101233.69;;;25.85;40.14
74573;BME280;63071;51.526;-0.134;2022-10-31T04:18:43;101236.78;;;25.83;40.01
74573;BME280;63071;51.526;-0.134;2022-10-31T04:21:08;101221.06;;;25.78;40.29
74573;BME280;63071;51.526;-0.134;2022-10-31T04:23:35;101229.47;;;25.80;40.06
74573;BME280;63071;51.526;-0.134;2022-10-31T04:26:01;101226.81;;;25.80;39.88
74573;BME280;63071;51.526;-0.134;2022-10-31T04:28:27;101231.00;;;25.81;39.66
74573;BME280;63071;51.526;-0.134;2022-10-31T04:30:53;101221.44;;;25.80;39.76
74573;BME280;63071;51.526;-0.134;2022-10-31T04:33:19;101224.50;;;25.82;39.50
74573;BME280;63071;51.526;-0.134;2022-10-31T04:35:45;101227.22;;;25.86;39.71
74573;BME280;63071;51.526;-0.134;2022-10-31T04:38:11;101220.69;;;25.87;39.42
74573;BME280;63071;51.526;-0.134;2022-10-31T04:40:36;101211.50;;;25.84;39.53
74573;BME280;63071;51.526;-0.134;2022-10-31T04:43:02;101200.03;;;25.80;40.02
74573;BME280;63071;51.526;-0.134;2022-10-31T04:45:27;101203.84;;;25.83;39.60
74573;BME280;63071;51.526;-0.134;2022-10-31T04:47:53;101201.97;;;25.83;40.40
74573;BME280;63071;51.526;-0.134;2022-10-31T04:50:18;101199.63;;;25.78;39.57
74573;BME280;63071;51.526;-0.134;2022-10-31T04:52:46;101189.28;;;25.76;40.35
74573;BME280;63071;51.526;-0.134;2022-10-31T04:55:12;101195.03;;;25.75;40.35
74573;BME280;63071;51.526;-0.134;2022-10-31T04:57:42;101196.94;;;25.74;40.19
74573;BME280;63071;51.526;-0.134;2022-10-31T05:00:10;101190.84;;;25.77;39.60
74573;BME280;63071;51.526;-0.134;2022-10-31T05:03:04;101198.88;;;25.77;39.95
74573;BME280;63071;51.526;-0.134;2022-10-31T05:05:31;101197.69;;;25.75;39.74
74573;BME280;63071;51.526;-0.134;2022-10-31T05:07:56;101192.72;;;25.77;40.45
74573;BME280;63071;51.526;-0.134;2022-10-31T05:10:27;101196.19;;;25.77;39.62
74573;BME280;63071;51.526;-0.134;2022-10-31T05:12:55;101193.53;;;25.77;40.09
74573;BME280;63071;51.526;-0.134;2022-10-31T05:15:23;101187.41;;;25.81;39.94
74573;BME280;63071;51.526;-0.134;2022-10-31T05:17:49;101191.25;;;25.83;39.83
74573;BME280;63071;51.526;-0.134;2022-10-31T05:20:17;101190.84;;;25.81;39.48
74573;BME280;63071;51.526;-0.134;2022-10-31T05:22:45;101187.81;;;25.86;39.96
74573;BME280;63071;51.526;-0.134;2022-10-31T05:25:11;101185.88;;;25.87;39.92
74573;BME280;63071;51.526;-0.134;2022-10-31T05:27:45;101185.88;;;25.87;40.03
74573;BME280;63071;51.526;-0.134;2022-10-31T05:30:13;101181.31;;;25.84;39.93
74573;BME280;63071;51.526;-0.134;2022-10-31T05:32:42;101184.34;;;25.82;39.68
74573;BME280;63071;51.526;-0.134;2022-10-31T05:35:08;101171.69;;;25.79;39.77
74573;BME280;63071;51.526;-0.134;2022-10-31T05:37:38;101178.22;;;25.82;40.15
74573;BME280;63071;51.526;-0.134;2022-10-31T05:40:05;101175.56;;;25.82;39.68
74573;BME280;63071;51.526;-0.134;2022-10-31T05:42:32;101175.16;;;25.79;40.17
74573;BME280;63071;51.526;-0.134;2022-10-31T05:44:58;101175.56;;;25.82;39.74
74573;BME280;63071;51.526;-0.134;2022-10-31T05:47:24;101170.56;;;25.80;39.88
74573;BME280;63071;51.526;-0.134;2022-10-31T05:49:50;101168.25;;;25.78;40.07
74573;BME280;63071;51.526;-0.134;2022-10-31T05:52:15;101170.19;;;25.82;40.05
74573;BME280;63071;51.526;-0.134;2022-10-31T05:54:41;101166.72;;;25.81;39.85
74573;BME280;63071;51.526;-0.134;2022-10-31T05:57:06;101169.81;;;25.83;40.04
74573;BME280;63071;51.526;-0.134;2022-10-31T05:59:32;101167.13;;;25.79;39.92
74573;BME280;63071;51.526;-0.134;2022-10-31T06:01:57;101166.38;;;25.83;40.53
74573;BME280;63071;51.526;-0.134;2022-10-31T06:04:23;101165.97;;;25.81;40.26
74573;BME280;63071;51.526;-0.134;2022-10-31T06:06:48;101165.97;;;25.81;39.79
74573;BME280;63071;51.526;-0.134;2022-10-31T06:09:14;101172.09;;;25.81;40.15
74573;BME280;63071;51.526;-0.134;2022-10-31T06:11:39;101162.91;;;25.78;39.91
74573;BME280;63071;51.526;-0.134;2022-10-31T06:14:05;101162.94;;;25.82;39.94
74573;BME280;63071;51.526;-0.134;2022-10-31T06:16:31;101165.97;;;25.81;40.33
74573;BME280;63071;51.526;-0.134;2022-10-31T06:18:56;101157.56;;;25.78;39.68
74573;BME280;63071;51.526;-0.134;2022-10-31T06:21:22;101158.31;;;25.79;40.15
74573;BME280;63071;51.526;-0.134;2022-10-31T06:23:47;101154.50;;;25.80;39.72
74573;BME280;63071;51.526;-0.134;2022-10-31T06:26:13;101159.09;;;25.79;40.58
74573;BME280;63071;51.526;-0.134;2022-10-31T06:28:38;101153.34;;;25.77;40.56
74573;BME280;63071;51.526;-0.134;2022-10-31T06:31:04;101156.44;;;25.79;40.41
74573;BME280;63071;51.526;-0.134;2022-10-31T06:33:29;101149.53;;;25.78;40.56
74573;BME280;63071;51.526;-0.134;2022-10-31T06:35:55;101153.72;;;25.76;39.88
74573;BME280;63071;51.526;-0.134;2022-10-31T06:38:20;101162.16;;;25.82;39.83
74573;BME280;63071;51.526;-0.134;2022-10-31T06:40:46;101154.13;;;25.82;39.66
74573;BME280;63071;51.526;-0.134;2022-10-31T06:43:11;101144.53;;;25.77;40.06
74573;BME280;63071;51.526;-0.134;2022-10-31T06:45:37;101149.16;;;25.80;40.59
74573;BME280;63071;51.526;-0.134;2022-10-31T06:48:03;101148.38;;;25.79;39.62
74573;BME280;63071;51.526;-0.134;2022-10-31T06:50:28;101148.78;;;25.82;40.22
74573;BME280;63071;51.526;-0.134;2022-10-31T06:52:57;101151.47;;;25.82;40.40
74573;BME280;63071;51.526;-0.134;2022-10-31T06:55:24;101154.53;;;25.84;40.22
74573;BME280;63071;51.526;-0.134;2022-10-31T06:58:00;101138.81;;;25.82;39.45
74573;BME280;63071;51.526;-0.134;2022-10-31T07:00:28;101146.13;;;25.85;40.42
74573;BME280;63071;51.526;-0.134;2022-10-31T07:02:59;101144.56;;;25.84;40.32
74573;BME280;63071;51.526;-0.134;2022-10-31T07:05:26;101136.91;;;25.83;40.30
74573;BME280;63071;51.526;-0.134;2022-10-31T07:07:59;101142.66;;;25.85;39.67
74573;BME280;63071;51.526;-0.134;2022-10-31T07:10:27;101138.47;;;25.84;40.18
74573;BME280;63071;51.526;-0.134;2022-10-31T07:12:58;101134.63;;;25.85;39.98
74573;BME280;63071;51.526;-0.134;2022-10-31T07:15:26;101142.25;;;25.83;40.12
74573;BME280;63071;51.526;-0.134;2022-10-31T07:17:52;101130.41;;;25.80;40.32
74573;BME280;63071;51.526;-0.134;2022-10-31T07:20:17;101135.38;;;25.82;40.50
74573;BME280;63071;51.526;-0.134;2022-10-31T07:22:44;101133.47;;;25.82;39.58
74573;BME280;63071;51.526;-0.134;2022-10-31T07:25:10;101128.88;;;25.83;39.74
74573;BME280;63071;51.526;-0.134;2022-10-31T07:27:37;101133.47;;;25.82;39.75
74573;BME280;63071;51.526;-0.134;2022-10-31T07:30:02;101132.72;;;25.82;40.50
74573;BME280;63071;51.526;-0.134;2022-10-31T07:32:37;101136.53;;;25.81;40.14
74573;BME280;63071;51.526;-0.134;2022-10-31T07:35:02;101143.03;;;25.79;39.91
74573;BME280;63071;51.526;-0.134;2022-10-31T07:37:28;101128.88;;;25.75;40.05
74573;BME280;63071;51.526;-0.134;2022-10-31T07:39:53;101129.25;;;25.81;40.24
74573;BME280;63071;51.526;-0.134;2022-10-31T07:42:19;101129.25;;;25.81;39.96
74573;BME280;63071;51.526;-0.134;2022-10-31T07:44:44;101130.78;;;25.78;40.12
74573;BME280;63071;51.526;-0.134;2022-10-31T07:47:10;101133.47;;;25.78;40.17
74573;BME280;63071;51.526;-0.134;2022-10-31T07:49:35;101130.03;;;25.82;39.66
74573;BME280;63071;51.526;-0.134;2022-10-31T07:52:01;101131.56;;;25.83;39.94
74573;BME280;63071;51.526;-0.134;2022-10-31T07:54:26;101133.47;;;25.82;40.30
74573;BME280;63071;51.526;-0.134;2022-10-31T07:56:52;101122.00;;;25.82;40.19
74573;BME280;63071;51.526;-0.134;2022-10-31T07:59:17;101122.38;;;25.80;39.83
74573;BME280;63071;51.526;-0.134;2022-10-31T08:01:42;101123.91;;;25.81;39.90
74573;BME280;63071;51.526;-0.134;2022-10-31T08:04:08;101127.34;;;25.82;39.70
74573;BME280;63071;51.526;-0.134;2022-10-31T08:06:33;101122.38;;;25.80;39.85
74573;BME280;63071;51.526;-0.134;2022-10-31T08:08:59;101122.41;;;25.87;40.26
74573;BME280;63071;51.526;-0.134;2022-10-31T08:11:25;101128.94;;;25.90;39.71
74573;BME280;63071;51.526;-0.134;2022-10-31T08:13:50;101128.16;;;25.93;39.75
74573;BME280;63071;51.526;-0.134;2022-10-31T08:16:15;101137.75;;;25.97;40.35
74573;BME280;63071;51.526;-0.134;2022-10-31T08:18:41;101138.16;;;26.00;39.47
74573;BME280;63071;51.526;-0.134;2022-10-31T08:21:06;101133.16;;;25.98;39.85
74573;BME280;63071;51.526;-0.134;2022-10-31T08:23:32;101132.78;;;26.00;39.65
74573;BME280;63071;51.526;-0.134;2022-10-31T08:25:57;101130.09;;;25.96;40.16
74573;BME280;63071;51.526;-0.134;2022-10-31T08:28:23;101126.25;;;25.97;40.36
74573;BME280;63071;51.526;-0.134;2022-10-31T08:30:48;101111.72;;;25.98;40.46
74573;BME280;63071;51.526;-0.134;2022-10-31T08:33:16;101123.22;;;25.98;39.76
74573;BME280;63071;51.526;-0.134;2022-10-31T08:35:42;101120.91;;;26.01;40.41
74573;BME280;63071;51.526;-0.134;2022-10-31T08:38:09;101126.28;;;26.01;39.58
74573;BME280;63071;51.526;-0.134;2022-10-31T08:40:35;101119.00;;;26.05;40.25
74573;BME280;63071;51.526;-0.134;2022-10-31T08:43:08;101120.94;;;26.04;39.49
74573;BME280;63071;51.526;-0.134;2022-10-31T08:45:35;101114.81;;;26.04;39.54
74573;BME280;63071;51.526;-0.134;2022-10-31T08:48:03;101115.56;;;26.04;40.10
74573;BME280;63071;51.526;-0.134;2022-10-31T08:50:31;101112.53;;;26.06;39.33
74573;BME280;63071;51.526;-0.134;2022-10-31T08:53:04;101101.41;;;26.07;39.98
74573;BME280;63071;51.526;-0.134;2022-10-31T08:55:29;101091.84;;;26.06;40.06
74573;BME280;63071;51.526;-0.134;2022-10-31T08:57:58;101100.28;;;26.08;39.73
74573;BME280;63071;51.526;-0.134;2022-10-31T09:00:24;101100.28;;;26.08;39.63
74573;BME280;63071;51.526;-0.134;2022-10-31T09:02:57;101103.69;;;26.09;40.21
74573;BME280;63071;51.526;-0.134;2022-10-31T09:05:23;101091.47;;;26.08;40.05
74573;BME280;63071;51.526;-0.134;2022-10-31T09:07:48;101100.28;;;26.08;39.50
74573;BME280;63071;51.526;-0.134;2022-10-31T09:10:14;101099.50;;;26.04;39.62
74573;BME280;63071;51.526;-0.134;2022-10-31T09:12:39;101102.94;;;26.01;39.87
74573;BME280;63071;51.526;-0.134;2022-10-31T09:15:05;101083.41;;;25.97;39.44
74573;BME280;63071;51.526;-0.134;2022-10-31T09:17:32;101081.13;;;25.92;40.07
74573;BME280;63071;51.526;-0.134;2022-10-31T09:19:57;101078.06;;;25.90;39.69
74573;BME280;63071;51.526;-0.134;2022-10-31T09:22:23;101073.81;;;25.89;40.40
74573;BME280;63071;51.526;-0.134;2022-10-31T09:24:48;101069.66;;;25.91;39.56
74573;BME280;63071;51.526;-0.134;2022-10-31T09:27:14;101071.16;;;25.92;39.76
74573;BME280;63071;51.526;-0.134;2022-10-31T09:29:39;101067.34;;;25.97;39.43
74573;BME280;63071;51.526;-0.134;2022-10-31T09:32:05;101066.56;;;25.93;39.36
74573;BME280;63071;51.526;-0.134;2022-10-31T09:34:30;101068.13;;;25.97;39.99
74573;BME280;63071;51.526;-0.134;2022-10-31T09:36:56;101063.53;;;25.98;39.83
74573;BME280;63071;51.526;-0.134;2022-10-31T09:39:21;101061.97;;;25.97;39.53
74573;BME280;63071;51.526;-0.134;2022-10-31T09:42:09;101067.34;;;26.01;40.03
74573;BME280;63071;51.526;-0.134;2022-10-31T09:44:53;101052.03;;;26.01;40.02
74573;BME280;63071;51.526;-0.134;2022-10-31T09:50:14;101040.94;;;25.99;39.92
74573;BME280;63071;51.526;-0.134;2022-10-31T09:52:53;101039.03;;;26.00;40.19
74573;BME280;63071;51.526;-0.134;2022-10-31T09:55:34;101020.28;;;25.92;39.88
74573;BME280;63071;51.526;-0.134;2022-10-31T09:58:01;101030.59;;;26.01;40.30
74573;BME280;63071;51.526;-0.134;2022-10-31T10:00:28;101021.06;;;26.00;39.66
74573;BME280;63071;51.526;-0.134;2022-10-31T10:03:07;101038.28;;;26.10;39.32
74573;BME280;63071;51.526;-0.134;2022-10-31T10:05:48;101031.00;;;26.10;39.45
74573;BME280;63071;51.526;-0.134;2022-10-31T10:08:20;101031.00;;;26.10;40.23
74573;BME280;63071;51.526;-0.134;2022-10-31T10:16:23;101025.25;;;26.19;39.23
74573;BME280;63071;51.526;-0.134;2022-10-31T10:19:18;101013.41;;;26.20;39.39
74573;BME280;63071;51.526;-0.134;2022-10-31T10:27:19;101002.28;;;26.29;40.19
74573;BME280;63071;51.526;-0.134;2022-10-31T10:30:01;101001.53;;;26.21;40.08
74573;BME280;63071;51.526;-0.134;2022-10-31T10:32:30;101006.13;;;26.21;39.82
74573;BME280;63071;51.526;-0.134;2022-10-31T10:35:16;101002.66;;;26.24;39.95
74573;BME280;63071;51.526;-0.134;2022-10-31T10:37:46;101012.63;;;26.27;39.59
74573;BME280;63071;51.526;-0.134;2022-10-31T10:40:21;101006.13;;;26.28;39.93
74573;BME280;63071;51.526;-0.134;2022-10-31T10:57:20;100983.88;;;26.45;40.80
74573;BME280;63071;51.526;-0.134;2022-10-31T10:59:47;100973.16;;;26.45;40.34
74573;BME280;63071;51.526;-0.134;2022-10-31T11:02:22;100964.75;;;26.47;41.05
74573;BME280;63071;51.526;-0.134;2022-10-31T11:04:54;100963.19;;;26.49;39.91
74573;BME280;63071;51.526;-0.134;2022-10-31T11:07:20;100963.19;;;26.56;40.66
74573;BME280;63071;51.526;-0.134;2022-10-31T11:09:46;100959.34;;;26.61;40.10
74573;BME280;63071;51.526;-0.134;2022-10-31T11:12:30;100956.25;;;26.66;39.94
74573;BME280;63071;51.526;-0.134;2022-10-31T11:15:00;100953.97;;;26.68;39.55
74573;BME280;63071;51.526;-0.134;2022-10-31T11:17:38;100947.44;;;26.73;40.21
74573;BME280;63071;51.526;-0.134;2022-10-31T11:22:47;100938.59;;;26.76;40.15
74573;BME280;63071;51.526;-0.134;2022-10-31T11:28:05;100927.09;;;26.83;39.78
74573;BME280;63071;51.526;-0.134;2022-10-31T11:30:42;100924.84;;;26.74;40.52
74573;BME280;63071;51.526;-0.134;2022-10-31T11:33:18;100937.03;;;26.86;40.20
74573;BME280;63071;51.526;-0.134;2022-10-31T11:35:45;100920.25;;;26.74;39.67
74573;BME280;63071;51.526;-0.134;2022-10-31T11:38:18;100919.41;;;26.88;39.87
74573;BME280;63071;51.526;-0.134;2022-10-31T11:41:12;100912.91;;;26.89;39.95
74573;BME280;63071;51.526;-0.134;2022-10-31T11:43:49;100916.34;;;26.86;40.24
74573;BME280;63071;51.526;-0.134;2022-10-31T11:46:21;100920.50;;;26.94;39.83
74573;BME280;63071;51.526;-0.134;2022-10-31T11:48:53;100903.66;;;26.94;39.78
74573;BME280;63071;51.526;-0.134;2022-10-31T11:51:26;100901.69;;;27.05;39.67
74573;BME280;63071;51.526;-0.134;2022-10-31T11:53:57;100896.28;;;27.09;39.21
74573;BME280;63071;51.526;-0.134;2022-10-31T11:56:23;100887.06;;;27.17;39.36
74573;BME280;63071;51.526;-0.134;2022-10-31T11:59:04;100887.81;;;27.17;39.04
74573;BME280;63071;51.526;-0.134;2022-10-31T12:01:31;100881.69;;;27.17;39.35
74573;BME280;63071;51.526;-0.134;2022-10-31T12:04:07;100874.41;;;27.17;39.48
74573;BME280;63071;51.526;-0.134;2022-10-31T12:06:35;100869.06;;;27.10;39.13
74573;BME280;63071;51.526;-0.134;2022-10-31T12:09:04;100854.09;;;27.13;39.59
74573;BME280;63071;51.526;-0.134;2022-10-31T12:17:57;100849.50;;;27.13;39.43
74573;BME280;63071;51.526;-0.134;2022-10-31T12:28:59;100823.00;;;27.26;38.54
74573;BME280;63071;51.526;-0.134;2022-10-31T12:43:29;100795.06;;;27.16;38.07
74573;BME280;63071;51.526;-0.134;2022-10-31T12:46:00;100788.97;;;27.09;38.32
74573;BME280;63071;51.526;-0.134;2022-10-31T12:59:46;100743.72;;;27.14;37.66
74573;BME280;63071;51.526;-0.134;2022-10-31T13:05:44;100739.53;;;27.10;37.79
74573;BME280;63071;51.526;-0.134;2022-10-31T13:08:20;100742.19;;;27.13;37.66
74573;BME280;63071;51.526;-0.134;2022-10-31T13:11:02;100725.44;;;27.02;37.96
74573;BME280;63071;51.526;-0.134;2022-10-31T13:13:42;100705.16;;;26.97;38.00
74573;BME280;63071;51.526;-0.134;2022-10-31T13:18:50;100701.25;;;27.06;37.30
74573;BME280;63071;51.526;-0.134;2022-10-31T13:21:30;100701.63;;;27.08;37.37
74573;BME280;63071;51.526;-0.134;2022-10-31T13:24:03;100690.16;;;27.04;37.54
74573;BME280;63071;51.526;-0.134;2022-10-31T13:26:47;100677.59;;;26.97;37.29
74573;BME280;63071;51.526;-0.134;2022-10-31T13:29:36;100674.84;;;27.01;37.65
74573;BME280;63071;51.526;-0.134;2022-10-31T13:32:06;100673.72;;;26.98;37.60
74573;BME280;63071;51.526;-0.134;2022-10-31T13:34:42;100673.75;;;26.94;37.67
74573;BME280;63071;51.526;-0.134;2022-10-31T13:37:35;100654.22;;;26.94;38.13
74573;BME280;63071;51.526;-0.134;2022-10-31T13:40:19;100646.56;;;26.92;38.09
74573;BME280;63071;51.526;-0.134;2022-10-31T13:43:25;100628.06;;;27.05;38.10
74573;BME280;63071;51.526;-0.134;2022-10-31T13:45:54;100628.88;;;26.98;38.02
74573;BME280;63071;51.526;-0.134;2022-10-31T13:48:38;100623.16;;;26.96;37.35
74573;BME280;63071;51.526;-0.134;2022-10-31T13:51:07;100608.59;;;26.97;37.07
74573;BME280;63071;51.526;-0.134;2022-10-31T13:56:16;100591.44;;;26.91;37.44
74573;BME280;63071;51.526;-0.134;2022-10-31T14:01:31;100595.97;;;26.94;37.54
74573;BME280;63071;51.526;-0.134;2022-10-31T14:06:43;100593.38;;;26.91;37.44
74573;BME280;63071;51.526;-0.134;2022-10-31T14:09:28;100584.91;;;26.92;38.05
74573;BME280;63071;51.526;-0.134;2022-10-31T14:11:57;100573.03;;;26.93;37.62
74573;BME280;63071;51.526;-0.134;2022-10-31T14:14:39;100558.13;;;26.89;37.48
74573;BME280;63071;51.526;-0.134;2022-10-31T14:17:17;100556.25;;;26.86;37.82
74573;BME280;63071;51.526;-0.134;2022-10-31T14:19:43;100559.25;;;26.91;37.72
74573;BME280;63071;51.526;-0.134;2022-10-31T14:22:20;100559.66;;;26.90;37.42
74573;BME280;63071;51.526;-0.134;2022-10-31T14:24:46;100541.94;;;26.96;37.70
74573;BME280;63071;51.526;-0.134;2022-10-31T14:29:50;100541.94;;;26.96;37.51
74573;BME280;63071;51.526;-0.134;2022-10-31T14:32:24;100534.31;;;26.94;38.62
74573;BME280;63071;51.526;-0.134;2022-10-31T14:37:51;100519.38;;;26.93;38.51
74573;BME280;63071;51.526;-0.134;2022-10-31T14:40:31;100503.91;;;27.05;37.86
74573;BME280;63071;51.526;-0.134;2022-10-31T14:51:16;100493.59;;;27.03;37.83
74573;BME280;63071;51.526;-0.134;2022-10-31T14:53:52;100492.06;;;27.02;37.39
74573;BME280;63071;51.526;-0.134;2022-10-31T14:56:24;100485.94;;;27.02;37.97
74573;BME280;63071;51.526;-0.134;2022-10-31T14:58:55;100477.97;;;26.94;37.90